Time;durP1;ratioP1;P1;durP2;ratioP2;P2;SDS_P1;SDS_P2;PMS_P1;PMS_P2;Temp;Humidity;BMP_temperature;BMP_pressure;BME280_temperature;BME280_humidity;BME280_pressure;Samples;Min_cycle;Max_cycle;Signal;HPM_P1;HPM_P2
2023/06/20 00:00:08;;;;;;;10.15;8.30;;;24.90;58.20;;;;;;7679020;22;81218;-59
2023/06/20 00:03:09;;;;;;;11.95;8.85;;;24.90;58.20;;;;;;7677879;22;80420;-59
2023/06/20 00:06:09;;;;;;;13.98;9.68;;;24.90;58.20;;;;;;7678516;22;80324;-59
2023/06/20 00:09:10;;;;;;;13.27;8.48;;;24.90;58.30;;;;;;7678470;22;80054;-72
2023/06/20 00:12:10;;;;;;;12.52;8.57;;;24.90;58.20;;;;;;7679970;22;81413;-68
2023/06/20 00:15:11;;;;;;;10.63;8.57;;;24.90;58.10;;;;;;7680348;22;80171;-69
2023/06/20 00:18:12;;;;;;;9.70;7.82;;;24.90;57.80;;;;;;7679207;22;81097;-68
2023/06/20 00:21:13;;;;;;;13.05;8.32;;;24.80;57.90;;;;;;7676775;22;80628;-69
2023/06/20 00:24:14;;;;;;;10.52;8.20;;;24.80;58.50;;;;;;7676682;22;80416;-70
2023/06/20 00:27:14;;;;;;;13.38;8.65;;;24.80;58.00;;;;;;7676134;22;81481;-69
2023/06/20 00:30:15;;;;;;;10.25;8.13;;;24.80;58.10;;;;;;7649461;22;83516;-70
2023/06/20 00:33:19;;;;;;;11.70;8.32;;;24.80;58.30;;;;;;7677759;22;80773;-69
2023/06/20 00:36:25;;;;;;;10.85;8.40;;;24.70;58.20;;;;;;7677962;22;80813;-69
2023/06/20 00:39:25;;;;;;;9.40;8.00;;;24.70;58.40;;;;;;7652496;22;83411;-70
2023/06/20 00:42:26;;;;;;;9.98;7.95;;;24.70;58.30;;;;;;7676526;22;86274;-70
2023/06/20 00:45:28;;;;;;;11.70;8.57;;;24.70;58.30;;;;;;7675879;22;80657;-60
2023/06/20 00:48:28;;;;;;;9.55;8.43;;;24.70;58.40;;;;;;7647091;22;81929;-60
2023/06/20 00:51:30;;;;;;;9.32;8.02;;;24.70;58.40;;;;;;7674874;22;81350;-60
2023/06/20 00:54:30;;;;;;;10.30;7.90;;;24.70;58.40;;;;;;7674562;22;80191;-60
2023/06/20 00:57:31;;;;;;;11.18;8.48;;;24.60;58.40;;;;;;7678500;22;80818;-59
2023/06/20 01:00:32;;;;;;;12.05;8.32;;;24.60;58.40;;;;;;7678408;22;81769;-60
2023/06/20 01:03:33;;;;;;;12.25;8.65;;;24.60;58.50;;;;;;7651804;22;81477;-58
2023/06/20 01:06:35;;;;;;;11.60;8.38;;;24.60;58.40;;;;;;7677696;22;80704;-61
2023/06/20 01:09:38;;;;;;;11.05;8.93;;;24.60;58.60;;;;;;7679105;22;80714;-63
2023/06/20 01:12:38;;;;;;;11.25;9.13;;;24.60;58.70;;;;;;7650734;22;83416;-60
2023/06/20 01:15:39;;;;;;;10.65;8.35;;;24.60;58.50;;;;;;7678632;22;80644;-61
2023/06/20 01:18:44;;;;;;;11.10;8.43;;;24.60;58.70;;;;;;7652311;22;82935;-61
2023/06/20 01:21:44;;;;;;;9.93;8.00;;;24.60;58.70;;;;;;7650980;22;81780;-61
2023/06/20 01:24:46;;;;;;;15.32;9.52;;;24.60;58.70;;;;;;7646363;22;83150;-62
2023/06/20 01:27:47;;;;;;;10.32;8.40;;;24.50;58.70;;;;;;7652163;22;81367;-60
2023/06/20 01:30:47;;;;;;;12.48;9.00;;;24.50;58.70;;;;;;7651608;22;82832;-59
2023/06/20 01:33:48;;;;;;;12.45;9.10;;;24.50;58.70;;;;;;7652262;22;83276;-59
2023/06/20 01:36:49;;;;;;;10.40;8.65;;;24.40;58.70;;;;;;7649205;22;83523;-60
2023/06/20 01:39:49;;;;;;;12.02;8.60;;;24.50;58.70;;;;;;7679354;22;80431;-59
2023/06/20 01:42:50;;;;;;;11.45;8.80;;;24.50;58.80;;;;;;7649029;22;83200;-58
2023/06/20 01:45:52;;;;;;;11.63;8.60;;;24.50;58.90;;;;;;7679205;22;80130;-59
2023/06/20 01:48:53;;;;;;;12.52;8.43;;;24.40;58.80;;;;;;7650720;22;81926;-58
2023/06/20 01:51:55;;;;;;;10.90;8.40;;;24.40;58.90;;;;;;7678624;22;80974;-59
2023/06/20 01:54:57;;;;;;;11.68;8.93;;;24.40;58.90;;;;;;7651437;22;82903;-59
2023/06/20 01:57:58;;;;;;;12.23;9.85;;;24.40;58.80;;;;;;7651465;22;83138;-59
2023/06/20 02:00:58;;;;;;;14.48;10.85;;;24.40;58.90;;;;;;7651764;22;81646;-58
2023/06/20 02:04:01;;;;;;;11.32;9.00;;;24.40;59.00;;;;;;7646885;22;83015;-58
2023/06/20 02:07:02;;;;;;;12.05;8.82;;;24.40;59.00;;;;;;7677947;22;83850;-60
2023/06/20 02:10:03;;;;;;;14.50;9.43;;;24.40;58.90;;;;;;7651324;22;83280;-58
2023/06/20 02:13:03;;;;;;;13.02;9.05;;;24.30;58.90;;;;;;7678139;22;80583;-61
2023/06/20 02:16:04;;;;;;;13.27;9.68;;;24.30;58.90;;;;;;7651621;22;82629;-60
2023/06/20 02:19:06;;;;;;;12.27;9.45;;;24.40;59.10;;;;;;7679529;22;80615;-60
2023/06/20 02:22:06;;;;;;;11.50;8.85;;;24.40;59.10;;;;;;7678387;22;80422;-59
2023/06/20 02:25:07;;;;;;;13.02;9.68;;;24.30;59.00;;;;;;7651463;22;83360;-59
2023/06/20 02:28:07;;;;;;;12.65;9.05;;;24.30;59.00;;;;;;7677598;22;81158;-60
2023/06/20 02:31:08;;;;;;;11.95;8.90;;;24.30;59.10;;;;;;7651113;22;82841;-59
2023/06/20 02:34:11;;;;;;;12.48;9.32;;;24.30;59.10;;;;;;7650483;22;82784;-72
2023/06/20 02:37:11;;;;;;;12.20;8.88;;;24.30;59.10;;;;;;7679491;22;85072;-72
2023/06/20 02:40:12;;;;;;;11.75;8.18;;;24.30;59.10;;;;;;7678349;22;80198;-68
2023/06/20 02:43:12;;;;;;;10.70;8.52;;;24.20;59.00;;;;;;7678117;22;80724;-67
2023/06/20 02:46:13;;;;;;;13.40;9.35;;;24.20;59.00;;;;;;7678638;22;81401;-65
2023/06/20 02:49:15;;;;;;;11.45;8.77;;;24.20;59.00;;;;;;7651468;22;81973;-64
2023/06/20 02:52:15;;;;;;;14.50;8.32;;;24.20;59.00;;;;;;7650010;22;83889;-66
2023/06/20 02:55:16;;;;;;;14.60;8.82;;;24.20;59.00;;;;;;7678797;22;80891;-67
2023/06/20 02:58:17;;;;;;;10.73;8.75;;;24.20;59.00;;;;;;7679108;22;80980;-68
2023/06/20 03:01:17;;;;;;;11.93;8.80;;;24.20;59.00;;;;;;7677516;22;80887;-68
2023/06/20 03:04:18;;;;;;;16.40;9.40;;;24.20;59.00;;;;;;7649891;22;81621;-69
2023/06/20 03:07:19;;;;;;;16.73;9.40;;;24.20;59.00;;;;;;7650346;22;82053;-69
2023/06/20 03:10:20;;;;;;;10.95;8.55;;;24.20;59.10;;;;;;7649734;22;82956;-70
2023/06/20 03:13:21;;;;;;;13.05;8.38;;;24.20;59.10;;;;;;7678167;22;80515;-68
2023/06/20 03:16:26;;;;;;;13.93;9.20;;;24.20;59.10;;;;;;7650259;22;82488;-69
2023/06/20 03:19:27;;;;;;;14.38;8.70;;;24.20;59.10;;;;;;7651248;22;83115;-69
2023/06/20 03:22:27;;;;;;;12.68;9.15;;;24.10;59.00;;;;;;7678028;22;80431;-72
2023/06/20 03:25:28;;;;;;;13.43;8.88;;;24.10;59.10;;;;;;7677007;22;80377;-75
2023/06/20 03:28:29;;;;;;;12.38;8.32;;;24.10;59.10;;;;;;7651093;22;82204;-75
2023/06/20 03:31:31;;;;;;;12.23;9.57;;;24.10;59.10;;;;;;7652445;22;87204;-75
2023/06/20 03:34:34;;;;;;;12.45;8.80;;;24.10;59.00;;;;;;7650845;22;82908;-71
2023/06/20 03:37:36;;;;;;;13.00;8.95;;;24.10;59.00;;;;;;7650632;22;82135;-73
2023/06/20 03:40:36;;;;;;;11.25;8.77;;;24.10;59.00;;;;;;7651957;22;82885;-69
2023/06/20 03:43:37;;;;;;;17.23;9.27;;;24.10;59.10;;;;;;7651080;22;83302;-68
2023/06/20 03:46:37;;;;;;;10.27;8.32;;;24.10;59.10;;;;;;7628271;22;83332;-69
2023/06/20 03:49:39;;;;;;;12.15;9.20;;;24.10;59.20;;;;;;7651776;22;82604;-68
2023/06/20 03:52:39;;;;;;;12.32;9.13;;;24.10;59.20;;;;;;7652982;22;82738;-67
2023/06/20 03:55:41;;;;;;;14.45;9.13;;;24.10;59.30;;;;;;7651227;22;82425;-68
2023/06/20 03:58:41;;;;;;;13.88;9.10;;;24.10;59.30;;;;;;7679712;22;80942;-76
2023/06/20 04:01:42;;;;;;;12.77;9.15;;;24.10;59.30;;;;;;7652626;22;80863;-67
2023/06/20 04:04:49;;;;;;;13.68;9.55;;;24.10;59.40;;;;;;7676996;22;80852;-75
2023/06/20 04:07:50;;;;;;;14.07;9.07;;;24.10;59.30;;;;;;7652347;22;81876;-62
2023/06/20 04:10:50;;;;;;;13.57;8.80;;;24.10;59.40;;;;;;7652943;22;83446;-68
2023/06/20 04:13:51;;;;;;;22.67;9.57;;;24.10;59.50;;;;;;7653332;22;83472;-65
2023/06/20 04:16:52;;;;;;;14.88;9.00;;;24.10;59.70;;;;;;7681260;22;80972;-65
2023/06/20 04:19:52;;;;;;;15.00;9.85;;;24.10;59.80;;;;;;7651723;22;81817;-63
2023/06/20 04:22:53;;;;;;;14.70;10.23;;;24.20;60.00;;;;;;7680521;22;80181;-63
2023/06/20 04:25:53;;;;;;;11.60;9.02;;;24.30;60.00;;;;;;7675593;22;83159;-64
2023/06/20 04:28:54;;;;;;;19.48;9.43;;;24.30;60.40;;;;;;7653741;22;85430;-63
2023/06/20 04:31:55;;;;;;;22.10;10.13;;;24.30;60.80;;;;;;7652942;22;83144;-63
2023/06/20 04:34:56;;;;;;;73.38;27.83;;;24.40;61.30;;;;;;7675791;22;82785;-65
2023/06/20 04:38:01;;;;;;;108.50;54.47;;;24.40;61.80;;;;;;7648102;22;85642;-65
2023/06/20 04:41:02;;;;;;;136.48;67.85;;;24.40;61.60;;;;;;7647965;22;85915;-63
2023/06/20 04:44:03;;;;;;;163.13;83.07;;;24.50;61.50;;;;;;7628070;22;85266;-64
2023/06/20 04:47:04;;;;;;;188.30;98.32;;;24.50;61.70;;;;;;7612095;22;85926;-65
2023/06/20 04:50:04;;;;;;;323.95;158.68;;;24.50;61.70;;;;;;7638008;22;82863;-66
2023/06/20 04:53:05;;;;;;;399.98;193.95;;;24.60;62.00;;;;;;7607017;22;86236;-70
2023/06/20 04:56:05;;;;;;;587.92;301.55;;;24.60;62.10;;;;;;7628668;22;85890;-65
2023/06/20 04:59:06;;;;;;;543.40;279.52;;;24.60;62.20;;;;;;7605443;22;87925;-64
2023/06/20 05:02:07;;;;;;;503.35;245.35;;;24.70;62.00;;;;;;7606447;22;88696;-68
2023/06/20 05:05:07;;;;;;;395.98;192.13;;;24.70;62.50;;;;;;7607237;22;88557;-72
2023/06/20 05:08:09;;;;;;;385.98;180.63;;;24.70;62.40;;;;;;7607707;22;88276;-68
2023/06/20 05:11:09;;;;;;;310.67;146.07;;;24.70;62.30;;;;;;7606207;22;88039;-66
2023/06/20 05:14:10;;;;;;;280.60;136.43;;;24.70;62.20;;;;;;7634998;22;86327;-64
2023/06/20 05:17:10;;;;;;;230.55;116.63;;;24.70;62.10;;;;;;7634944;22;85880;-69
2023/06/20 05:20:11;;;;;;;216.25;103.90;;;24.70;61.90;;;;;;7634564;22;85724;-59
2023/06/20 05:23:11;;;;;;;198.30;91.10;;;24.70;62.30;;;;;;7623581;22;86293;-59
2023/06/20 05:26:12;;;;;;;184.65;90.10;;;24.80;61.90;;;;;;7631352;22;85711;-60
2023/06/20 05:29:12;;;;;;;164.52;79.55;;;24.70;61.80;;;;;;7630885;22;83984;-59
2023/06/20 05:32:13;;;;;;;136.57;67.15;;;24.70;61.90;;;;;;7607055;22;83557;-60
2023/06/20 05:35:13;;;;;;;119.05;61.30;;;24.70;61.80;;;;;;7631297;22;83012;-61
2023/06/20 05:38:15;;;;;;;120.20;56.50;;;24.70;61.80;;;;;;7635256;22;82907;-60
2023/06/20 05:41:16;;;;;;;109.57;52.63;;;24.70;61.60;;;;;;7545882;22;84277;-64
2023/06/20 05:44:16;;;;;;;90.03;46.90;;;24.70;61.50;;;;;;7655384;22;88400;-64
2023/06/20 05:47:17;;;;;;;99.45;45.63;;;24.70;61.70;;;;;;7674511;22;83961;-63
2023/06/20 05:50:18;;;;;;;80.82;40.03;;;24.70;61.50;;;;;;7676016;22;82919;-63
2023/06/20 05:53:20;;;;;;;73.75;36.42;;;24.70;61.70;;;;;;7675442;22;83356;-63
2023/06/20 05:56:21;;;;;;;75.53;37.85;;;24.70;61.50;;;;;;7675706;22;83005;-71
2023/06/20 05:59:21;;;;;;;71.05;33.97;;;24.70;61.40;;;;;;7675218;22;83328;-72
2023/06/20 06:02:22;;;;;;;69.72;32.53;;;24.70;62.00;;;;;;7675617;22;82864;-72
2023/06/20 06:05:22;;;;;;;60.05;32.00;;;24.80;61.20;;;;;;7675316;22;83514;-72
2023/06/20 06:08:23;;;;;;;56.85;27.08;;;24.70;61.20;;;;;;7676693;22;82953;-71
2023/06/20 06:11:25;;;;;;;43.40;24.15;;;24.80;61.40;;;;;;7661237;22;83494;-70
2023/06/20 06:14:25;;;;;;;40.47;22.27;;;24.80;61.40;;;;;;7669664;22;83424;-60
2023/06/20 06:17:26;;;;;;;38.45;19.60;;;24.80;61.50;;;;;;7667413;22;83147;-59
2023/06/20 06:20:28;;;;;;;27.27;15.85;;;24.80;61.30;;;;;;7675654;22;84042;-59
2023/06/20 06:23:29;;;;;;;26.38;14.70;;;24.70;61.70;;;;;;7673324;22;83989;-59
2023/06/20 06:26:30;;;;;;;25.85;13.52;;;24.70;63.00;;;;;;7675048;22;82917;-58
2023/06/20 06:29:30;;;;;;;23.70;14.50;;;24.70;63.80;;;;;;7675183;22;82886;-59
2023/06/20 06:32:31;;;;;;;22.25;13.80;;;24.70;63.30;;;;;;7673450;22;82615;-60
2023/06/20 06:35:31;;;;;;;20.85;14.07;;;24.70;64.90;;;;;;7676098;22;82782;-67
2023/06/20 06:38:32;;;;;;;26.05;13.25;;;24.70;64.20;;;;;;7675375;22;83819;-66
2023/06/20 06:41:32;;;;;;;21.20;13.50;;;24.60;64.20;;;;;;7676777;22;83186;-66
2023/06/20 06:44:33;;;;;;;21.95;11.20;;;24.70;65.00;;;;;;7672873;22;83389;-65
2023/06/20 06:47:34;;;;;;;16.85;11.32;;;24.60;63.90;;;;;;7648226;22;85657;-65
2023/06/20 06:50:35;;;;;;;16.40;10.13;;;24.60;64.30;;;;;;7675094;22;83001;-66
2023/06/20 06:53:35;;;;;;;15.30;10.07;;;24.60;63.90;;;;;;7675841;22;83520;-65
2023/06/20 06:56:36;;;;;;;17.05;10.15;;;24.70;64.50;;;;;;7675373;22;83327;-64
2023/06/20 06:59:36;;;;;;;15.13;9.25;;;24.60;64.30;;;;;;7674871;22;88228;-65
2023/06/20 07:02:37;;;;;;;20.17;10.02;;;24.70;64.50;;;;;;7678715;22;82558;-65
2023/06/20 07:05:37;;;;;;;16.60;10.55;;;24.80;64.60;;;;;;7676421;22;83004;-66
2023/06/20 07:08:38;;;;;;;11.70;9.13;;;24.80;64.70;;;;;;7674784;22;82860;-66
2023/06/20 07:11:38;;;;;;;16.67;9.80;;;24.80;64.60;;;;;;7678413;22;82783;-59
2023/06/20 07:14:39;;;;;;;17.40;10.95;;;24.90;65.10;;;;;;7677641;22;80351;-59
2023/06/20 07:17:39;;;;;;;17.90;10.40;;;24.80;65.10;;;;;;7672904;22;82613;-59
2023/06/20 07:20:40;;;;;;;19.50;11.18;;;24.90;65.50;;;;;;7673432;22;82968;-59
2023/06/20 07:23:40;;;;;;;21.13;11.35;;;24.90;66.00;;;;;;7675008;22;83018;-59
2023/06/20 07:26:41;;;;;;;26.63;11.57;;;24.90;65.40;;;;;;7674519;22;83280;-58
2023/06/20 07:29:41;;;;;;;17.13;10.98;;;24.90;65.80;;;;;;7675750;22;83973;-64
2023/06/20 07:32:42;;;;;;;20.98;11.18;;;24.90;65.50;;;;;;7674212;22;83455;-65
2023/06/20 07:35:43;;;;;;;25.42;10.38;;;24.90;66.70;;;;;;7674822;22;83338;-64
2023/06/20 07:38:43;;;;;;;19.65;10.43;;;24.90;66.60;;;;;;7673434;22;82999;-65
2023/06/20 07:41:44;;;;;;;16.85;10.88;;;25.00;66.80;;;;;;7670480;22;83367;-62
2023/06/20 07:44:44;;;;;;;19.80;10.70;;;25.00;67.20;;;;;;7673023;22;83013;-63
2023/06/20 07:47:45;;;;;;;19.58;10.48;;;25.00;66.40;;;;;;7676695;22;83556;-72
2023/06/20 07:50:45;;;;;;;18.58;10.10;;;25.00;67.80;;;;;;7674039;22;82908;-73
2023/06/20 07:53:46;;;;;;;14.77;9.70;;;25.10;65.90;;;;;;7672797;22;83039;-71
2023/06/20 07:56:46;;;;;;;19.33;9.65;;;25.00;65.60;;;;;;7676938;22;83136;-71
2023/06/20 07:59:48;;;;;;;23.23;11.02;;;25.10;66.70;;;;;;7678116;22;80449;-78
2023/06/20 08:02:49;;;;;;;18.63;9.75;;;25.10;67.10;;;;;;7673355;22;83127;-72
2023/06/20 08:05:49;;;;;;;20.27;9.40;;;25.10;66.30;;;;;;7677350;22;82920;-73
2023/06/20 08:08:50;;;;;;;18.23;10.13;;;25.10;67.00;;;;;;7677517;22;80828;-73
2023/06/20 08:11:50;;;;;;;18.10;9.52;;;25.20;66.20;;;;;;7671433;22;83073;-72
2023/06/20 08:14:51;;;;;;;14.00;8.98;;;25.20;65.80;;;;;;7676652;22;81747;-71
2023/06/20 08:17:52;;;;;;;14.90;9.40;;;25.20;67.10;;;;;;7676830;22;81213;-72
2023/06/20 08:20:52;;;;;;;18.65;9.05;;;25.20;67.60;;;;;;7676956;22;81520;-71
2023/06/20 08:23:53;;;;;;;15.63;9.77;;;25.20;65.70;;;;;;7652345;22;83726;-73
2023/06/20 08:26:53;;;;;;;14.45;8.02;;;25.30;63.90;;;;;;7650275;22;81506;-73
2023/06/20 08:29:54;;;;;;;13.98;7.65;;;25.30;59.50;;;;;;7676522;22;81226;-73
2023/06/20 08:32:54;;;;;;;13.00;7.78;;;25.40;59.70;;;;;;7677815;22;80947;-75
2023/06/20 08:35:55;;;;;;;11.05;7.28;;;25.40;60.10;;;;;;7678510;22;80287;-71
2023/06/20 08:38:55;;;;;;;16.98;8.57;;;25.40;60.10;;;;;;7679327;22;80407;-72
2023/06/20 08:41:56;;;;;;;30.33;7.90;;;25.50;61.40;;;;;;7676811;22;80685;-63
2023/06/20 08:44:57;;;;;;;27.88;9.23;;;25.50;59.20;;;;;;7662444;22;80938;-63
2023/06/20 08:47:58;;;;;;;22.38;8.13;;;25.50;61.40;;;;;;7678280;22;80363;-64
2023/06/20 08:50:58;;;;;;;21.35;7.43;;;25.50;61.00;;;;;;7679050;22;80402;-64
2023/06/20 08:53:59;;;;;;;16.02;7.88;;;25.50;60.40;;;;;;7677932;22;81268;-60
2023/06/20 08:57:00;;;;;;;10.15;6.13;;;25.50;62.80;;;;;;7679244;22;81289;-64
2023/06/20 09:00:00;;;;;;;7.93;6.63;;;25.50;57.20;;;;;;7681328;22;80776;-64
2023/06/20 09:03:01;;;;;;;9.57;5.97;;;25.60;56.00;;;;;;7678844;22;81078;-64
2023/06/20 09:06:01;;;;;;;11.40;6.72;;;25.70;57.40;;;;;;7681025;22;81061;-64
2023/06/20 09:09:03;;;;;;;13.30;6.10;;;25.70;56.60;;;;;;7679484;22;81494;-66
2023/06/20 09:12:03;;;;;;;8.25;5.72;;;25.80;54.70;;;;;;7668442;22;80382;-64
2023/06/20 09:15:04;;;;;;;10.35;5.60;;;25.80;56.40;;;;;;7673956;22;80301;-64
2023/06/20 09:18:06;;;;;;;6.45;5.45;;;25.80;56.70;;;;;;7678097;22;80280;-64
2023/06/20 09:21:07;;;;;;;10.73;6.15;;;25.80;56.60;;;;;;7676121;22;80150;-63
2023/06/20 09:24:07;;;;;;;9.32;6.40;;;25.80;57.50;;;;;;7677279;22;80675;-64
2023/06/20 09:27:08;;;;;;;9.75;5.80;;;25.80;56.80;;;;;;7648690;22;80189;-63
2023/06/20 09:30:08;;;;;;;10.73;5.30;;;25.80;56.40;;;;;;7674586;22;80503;-63
2023/06/20 09:33:09;;;;;;;8.52;5.35;;;25.80;54.90;;;;;;7675012;22;80751;-63
2023/06/20 09:36:09;;;;;;;5.65;4.97;;;25.90;52.90;;;;;;7674885;22;80795;-62
2023/06/20 09:39:10;;;;;;;5.22;4.72;;;26.00;50.50;;;;;;7676923;22;80335;-63
2023/06/20 09:42:11;;;;;;;6.72;5.95;;;26.00;54.60;;;;;;7677256;22;80802;-65
2023/06/20 09:45:11;;;;;;;9.80;5.68;;;25.90;54.20;;;;;;7676456;22;81202;-65
2023/06/20 09:48:12;;;;;;;7.63;5.93;;;25.90;54.20;;;;;;7676462;22;82118;-65
2023/06/20 09:51:12;;;;;;;7.03;5.28;;;25.80;53.30;;;;;;7677861;22;80521;-64
2023/06/20 09:54:15;;;;;;;7.28;5.80;;;25.80;53.30;;;;;;7678129;22;80552;-64
2023/06/20 09:57:16;;;;;;;8.77;5.47;;;25.80;53.40;;;;;;7677877;22;80321;-69
2023/06/20 10:00:17;;;;;;;7.80;6.15;;;25.70;52.90;;;;;;7677815;22;80240;-70
2023/06/20 10:03:17;;;;;;;7.45;6.25;;;25.70;53.60;;;;;;7677669;22;80115;-69
2023/06/20 10:06:18;;;;;;;8.15;5.65;;;25.70;53.00;;;;;;7678950;22;80568;-70
2023/06/20 10:09:18;;;;;;;7.75;6.35;;;25.70;53.80;;;;;;7677851;22;80274;-71
2023/06/20 10:12:19;;;;;;;8.35;5.75;;;25.70;53.80;;;;;;7677900;22;81088;-71
2023/06/20 10:15:20;;;;;;;7.88;6.03;;;25.70;54.50;;;;;;7651226;22;80502;-71
2023/06/20 10:18:20;;;;;;;10.38;6.45;;;25.70;53.60;;;;;;7651489;22;83885;-71
2023/06/20 10:21:21;;;;;;;9.00;6.30;;;25.80;54.40;;;;;;7680859;22;81204;-72
2023/06/20 10:24:21;;;;;;;9.85;6.78;;;25.80;55.30;;;;;;7679907;22;81034;-73
2023/06/20 10:27:22;;;;;;;10.18;5.88;;;25.90;57.00;;;;;;7681000;22;80037;-72
2023/06/20 10:30:22;;;;;;;9.65;6.38;;;26.00;56.40;;;;;;7678532;22;80778;-71
2023/06/20 10:33:23;;;;;;;9.02;7.20;;;25.90;55.70;;;;;;7680966;22;80397;-70
2023/06/20 10:36:23;;;;;;;10.15;6.78;;;25.90;56.00;;;;;;7679783;22;80270;-70
2023/06/20 10:39:24;;;;;;;10.40;7.43;;;25.90;56.50;;;;;;7680083;22;80984;-70
2023/06/20 10:42:24;;;;;;;8.00;6.05;;;25.90;56.00;;;;;;7681607;22;80879;-69
2023/06/20 10:45:26;;;;;;;8.73;6.75;;;25.90;56.30;;;;;;7678893;22;80946;-69
2023/06/20 10:48:26;;;;;;;10.10;6.90;;;25.90;56.00;;;;;;7678880;22;81532;-72
2023/06/20 10:51:29;;;;;;;9.25;7.13;;;25.90;56.50;;;;;;7679200;22;80904;-66
2023/06/20 10:54:29;;;;;;;11.60;6.93;;;26.00;56.00;;;;;;7677031;22;80335;-65
2023/06/20 10:57:30;;;;;;;9.32;6.60;;;26.00;55.90;;;;;;7679684;22;80259;-65
2023/06/20 11:00:30;;;;;;;10.23;6.90;;;26.00;55.50;;;;;;7678827;22;80586;-65
2023/06/20 11:03:31;;;;;;;9.25;6.60;;;26.00;55.00;;;;;;7679299;22;80463;-64
2023/06/20 11:06:31;;;;;;;11.02;7.18;;;26.00;54.80;;;;;;7678992;22;80756;-63
2023/06/20 11:09:32;;;;;;;9.88;6.30;;;26.00;55.50;;;;;;7662854;22;80315;-65
2023/06/20 11:12:32;;;;;;;10.30;7.07;;;26.00;55.40;;;;;;7676231;22;80695;-64
2023/06/20 11:15:33;;;;;;;10.52;7.22;;;26.00;55.30;;;;;;7672149;22;81147;-66
2023/06/20 11:18:33;;;;;;;11.80;6.97;;;26.10;55.80;;;;;;7677121;22;80529;-65
2023/06/20 11:21:34;;;;;;;8.68;6.25;;;26.10;55.70;;;;;;7676073;22;80418;-67
2023/06/20 11:24:36;;;;;;;9.05;6.57;;;26.20;56.70;;;;;;7666831;22;80511;-65
2023/06/20 11:27:36;;;;;;;12.52;7.07;;;26.30;54.50;;;;;;7677225;22;80908;-71
2023/06/20 11:30:37;;;;;;;8.82;6.60;;;26.30;55.60;;;;;;7678617;22;80230;-71
2023/06/20 11:33:37;;;;;;;8.48;6.57;;;26.40;55.10;;;;;;7676758;22;80725;-71
2023/06/20 11:36:38;;;;;;;9.88;6.93;;;26.40;56.00;;;;;;7678021;22;80067;-71
2023/06/20 11:39:39;;;;;;;8.68;6.50;;;26.30;55.20;;;;;;7656397;22;80612;-73
2023/06/20 11:42:40;;;;;;;8.18;6.22;;;26.30;55.30;;;;;;7677023;22;81820;-72
2023/06/20 11:45:40;;;;;;;9.60;6.57;;;26.50;55.40;;;;;;7678521;22;80203;-65
2023/06/20 11:48:41;;;;;;;10.38;6.80;;;26.50;55.70;;;;;;7677163;22;81239;-64
2023/06/20 11:51:41;;;;;;;7.97;5.63;;;26.50;54.80;;;;;;7677190;22;81267;-65
2023/06/20 11:54:42;;;;;;;7.68;6.38;;;26.70;51.30;;;;;;7674073;22;80689;-64
2023/06/20 11:57:43;;;;;;;8.50;6.63;;;26.80;50.40;;;;;;7676952;22;81389;-64
2023/06/20 12:00:47;;;;;;;20.35;6.93;;;26.90;50.90;;;;;;7677242;22;81683;-64
2023/06/20 12:03:48;;;;;;;11.07;5.93;;;26.90;51.10;;;;;;7677441;22;80870;-64
2023/06/20 12:06:53;;;;;;;8.73;6.40;;;27.20;49.60;;;;;;7678313;22;80409;-63
2023/06/20 12:09:53;;;;;;;16.27;7.60;;;27.10;50.30;;;;;;7678059;22;87226;-62
2023/06/20 12:12:54;;;;;;;28.42;6.70;;;27.10;51.70;;;;;;7678363;22;80675;-63
2023/06/20 12:15:54;;;;;;;18.48;6.50;;;27.20;50.40;;;;;;7679108;22;80166;-64
2023/06/20 12:18:59;;;;;;;8.02;6.13;;;27.30;49.10;;;;;;7679352;22;80427;-64
2023/06/20 12:22:00;;;;;;;9.75;6.13;;;27.40;49.50;;;;;;7680295;22;80910;-65
2023/06/20 12:25:00;;;;;;;8.07;6.38;;;27.50;48.80;;;;;;7679420;22;80609;-64
2023/06/20 12:28:01;;;;;;;7.65;5.95;;;27.70;47.70;;;;;;7667282;22;80665;-65
2023/06/20 12:31:02;;;;;;;8.02;5.32;;;27.70;48.00;;;;;;7678121;22;80701;-63
2023/06/20 12:34:02;;;;;;;7.53;5.82;;;27.60;48.50;;;;;;7677421;22;81020;-63
2023/06/20 12:37:03;;;;;;;12.40;5.82;;;27.70;48.50;;;;;;7673994;22;81631;-63
2023/06/20 12:40:03;;;;;;;19.40;6.72;;;27.60;49.30;;;;;;7679771;22;81265;-64
2023/06/20 12:43:05;;;;;;;18.17;7.00;;;27.60;48.30;;;;;;7679959;22;80239;-63
2023/06/20 12:46:06;;;;;;;13.48;6.57;;;27.70;48.20;;;;;;7649750;22;80878;-64
2023/06/20 12:49:06;;;;;;;12.48;6.82;;;27.70;46.80;;;;;;7676321;22;81534;-64
2023/06/20 12:52:08;;;;;;;12.63;6.90;;;27.80;47.20;;;;;;7675294;22;80361;-64
2023/06/20 12:55:08;;;;;;;11.52;7.20;;;27.60;49.50;;;;;;7675375;22;80631;-65
2023/06/20 12:58:09;;;;;;;9.07;6.10;;;27.50;48.70;;;;;;7648590;22;81966;-64
2023/06/20 13:01:09;;;;;;;16.85;6.97;;;27.40;49.20;;;;;;7679165;22;80307;-64
2023/06/20 13:04:10;;;;;;;11.25;6.53;;;27.30;49.90;;;;;;7677029;22;80300;-64
2023/06/20 13:07:11;;;;;;;10.98;6.80;;;27.30;50.00;;;;;;7678818;22;80589;-63
2023/06/20 13:10:12;;;;;;;7.57;6.43;;;27.30;50.40;;;;;;7649292;22;81464;-60
2023/06/20 13:13:13;;;;;;;12.20;6.97;;;27.20;50.40;;;;;;7640543;22;81239;-64
2023/06/20 13:16:15;;;;;;;8.52;6.78;;;27.30;50.80;;;;;;7666256;22;84544;-67
2023/06/20 13:19:18;;;;;;;10.50;6.07;;;27.30;50.40;;;;;;7650424;22;81238;-65
2023/06/20 13:22:18;;;;;;;16.15;6.45;;;27.30;51.00;;;;;;7677119;22;80395;-65
2023/06/20 13:25:19;;;;;;;10.07;6.60;;;27.20;51.60;;;;;;7675901;22;80283;-65
2023/06/20 13:28:21;;;;;;;8.07;6.43;;;27.20;51.30;;;;;;7666637;22;81545;-63
2023/06/20 13:31:21;;;;;;;8.02;6.75;;;27.20;51.70;;;;;;7679223;22;80239;-67
2023/06/20 13:34:22;;;;;;;9.50;7.35;;;27.20;52.10;;;;;;7678681;22;80283;-67
2023/06/20 13:37:22;;;;;;;117.63;59.70;;;27.20;51.50;;;;;;7677596;22;80893;-64
2023/06/20 13:40:30;;;;;;;50.97;23.00;;;27.10;51.50;;;;;;7674268;22;83038;-65
2023/06/20 13:43:30;;;;;;;101.22;50.63;;;27.10;51.40;;;;;;7670394;22;82921;-64
2023/06/20 13:46:31;;;;;;;84.63;42.58;;;27.10;52.00;;;;;;7674306;22;84079;-66
2023/06/20 13:49:31;;;;;;;99.50;49.50;;;27.10;51.50;;;;;;7675708;22;82872;-67
2023/06/20 13:52:32;;;;;;;132.18;66.63;;;27.00;51.40;;;;;;7675213;22;82973;-66
2023/06/20 13:55:32;;;;;;;90.22;47.50;;;27.00;51.40;;;;;;7671736;22;83136;-62
2023/06/20 13:58:33;;;;;;;72.85;35.33;;;26.90;51.10;;;;;;7670466;22;84161;-60
2023/06/20 14:01:34;;;;;;;55.05;28.67;;;26.90;51.10;;;;;;7676364;22;83348;-62
2023/06/20 14:04:36;;;;;;;46.58;24.02;;;26.90;51.20;;;;;;7674680;22;83168;-62
2023/06/20 14:07:37;;;;;;;34.55;19.30;;;26.90;51.50;;;;;;7672490;22;83820;-64
2023/06/20 14:10:37;;;;;;;25.25;15.27;;;26.90;51.60;;;;;;7674603;22;83005;-62
2023/06/20 14:13:38;;;;;;;23.60;13.23;;;26.90;51.70;;;;;;7672374;22;84451;-60
2023/06/20 14:16:38;;;;;;;17.75;11.25;;;26.90;52.00;;;;;;7675697;22;84013;-61
2023/06/20 14:19:39;;;;;;;16.92;10.93;;;27.00;52.00;;;;;;7647470;22;83302;-61
2023/06/20 14:22:39;;;;;;;18.10;9.80;;;27.00;52.40;;;;;;7669168;22;83732;-61
2023/06/20 14:25:40;;;;;;;12.88;9.65;;;27.10;52.40;;;;;;7674636;22;83270;-62
2023/06/20 14:28:40;;;;;;;13.65;8.05;;;27.10;52.40;;;;;;7680255;22;81141;-59
2023/06/20 14:31:41;;;;;;;14.15;9.60;;;27.00;52.40;;;;;;7679206;22;80460;-59
2023/06/20 14:34:43;;;;;;;17.27;8.77;;;27.00;51.60;;;;;;7681234;22;81302;-63
2023/06/20 14:37:44;;;;;;;13.27;7.70;;;27.10;51.40;;;;;;7653696;22;80680;-61
2023/06/20 14:40:44;;;;;;;13.13;8.82;;;27.10;52.20;;;;;;7672451;22;81924;-57
2023/06/20 14:43:45;;;;;;;9.75;7.82;;;27.00;52.00;;;;;;7673778;22;80538;-58
2023/06/20 14:46:45;;;;;;;11.00;7.95;;;27.00;51.70;;;;;;7678018;22;80641;-58
2023/06/20 14:49:46;;;;;;;15.20;7.65;;;27.10;51.60;;;;;;7677825;22;80322;-58
2023/06/20 14:52:46;;;;;;;15.32;6.88;;;27.10;52.10;;;;;;7678863;22;80970;-57
2023/06/20 14:55:47;;;;;;;9.80;7.20;;;27.10;52.20;;;;;;7678365;22;80565;-57
2023/06/20 14:58:47;;;;;;;10.65;6.68;;;27.10;52.30;;;;;;7678606;22;80958;-58
2023/06/20 15:01:48;;;;;;;10.23;6.63;;;27.10;52.10;;;;;;7672573;22;80434;-59
2023/06/20 15:04:48;;;;;;;9.95;7.35;;;27.10;51.70;;;;;;7675671;22;80938;-57
2023/06/20 15:07:49;;;;;;;8.77;6.90;;;27.10;51.50;;;;;;7678997;22;80814;-57
2023/06/20 15:10:49;;;;;;;8.30;6.75;;;27.10;51.80;;;;;;7675493;22;80270;-58
2023/06/20 15:13:50;;;;;;;13.85;7.40;;;27.00;51.40;;;;;;7676294;22;80795;-57
2023/06/20 15:16:50;;;;;;;9.13;7.00;;;27.10;51.30;;;;;;7675443;22;80690;-57
2023/06/20 15:19:51;;;;;;;9.30;6.95;;;27.10;51.00;;;;;;7676941;22;80593;-57
2023/06/20 15:22:51;;;;;;;9.10;7.50;;;27.10;51.50;;;;;;7674445;22;80363;-58
2023/06/20 15:25:52;;;;;;;14.80;8.35;;;27.00;51.90;;;;;;7675409;22;80966;-58